• Join FlightAware (Why Join?)
  • Login
  • US Flag 
05:28PM EDT


 

Airport Tracker/Info


-or-


 

Live Flight TrackerFlight Track Log ✈ UAL5887 ✈ 29-Oct-2013 ✈ KLAN - KORD

Flight Track Log - Related Links

Times and Time Zones

All times are in EDT time to prevent confusion due to time zone crossing. See the UAL5887 flight status page for this flight to view local times or setup timezone preferences in your user account.

Time Position Orientation Groundspeed Altitude Reporting Facility
EDT Latitude Longitude Course Direction KTS MPH feet Rate Location/Type
05:28AM 42.7847 -84.5508 287° West 193 222 2,700  Level Cleveland Center
05:29AM 42.8253 -84.5397 11° North 194 223 5,500 2,640 Climbing Cleveland Center
05:30AM 42.8272 -84.6236 272° West 210 242 8,100 2,520 Climbing Cleveland Center
05:31AM 42.7160 -84.8657 281° West  Level Estimated
05:31AM 42.8253 -84.7117 268° West 241 277 10,600  Level Cleveland Center
05:32AM 42.7406 -84.9571 290° West  Level FlightAware Approximate
05:32AM 42.8203 -84.8156 266° West 273 314 12,100  Level Cleveland Center
05:33AM 42.7182 -85.0496 270° West  Level Estimated
05:33AM 42.8147 -84.9336 266° West 308 354 13,900  Level Cleveland Center
05:34AM 42.7408 -85.1533 287° West  Level FlightAware Approximate
05:34AM 42.8097 -85.0522 267° West 313 360 15,900  Level Cleveland Center
05:35AM 42.7992 -85.1725 263° West 320 368 17,500 1,320 Climbing Cleveland Center
05:36AM 42.7775 -85.2944 256° West 329 379 18,600 1,200 Climbing Cleveland Center
05:37AM 42.7558 -85.4197 257° West 339 390 20,000 1,380 Climbing Cleveland Center
05:38AM 42.7319 -85.5472 256° West 346 398 21,400 960 Climbing Cleveland Center
05:39AM 42.7081 -85.6836 257° West 363 418 22,000 240 Climbing Cleveland Center
05:40AM 42.6819 -85.8286 256° West 387 445 22,000  Level Cleveland Center
05:41AM 42.6550 -85.9756 256° West 397 457 22,000  Level Cleveland Center
05:42AM 42.6275 -86.1206 256° West 396 456 22,000  Level Cleveland Center
05:43AM 42.6006 -86.2656 256° West 394 453 22,000  Level Cleveland Center
05:44AM 42.5736 -86.4089 256° West 394 453 22,000 -900 Level Cleveland Center
05:46AM 42.5350 -86.6092 255° West 392 451 19,900 -1,680 Descending Chicago Center
05:47AM 42.5111 -86.7431 256° West 377 434 18,100 -1,620 Descending Chicago Center
05:48AM 42.4861 -86.8731 255° West 364 419 16,700 -1,740 Descending Chicago Center
05:49AM 42.4606 -87.0061 255° West 358 412 14,700 -1,920 Descending Chicago Center
05:50AM 42.4339 -87.1308 254° West 350 403 12,900 -1,800 Descending Chicago Center
05:51AM 42.4119 -87.2539 256° West 340 391 11,100 -960 Descending Chicago Center
05:52AM 42.3833 -87.3731 252° West 337 388 11,000 -60 Descending Chicago Center
05:53AM 42.3519 -87.4872 250° West 341 392 11,000  Level Chicago Center
05:54AM 42.2925 -87.5844 230° Southwest 346 398 11,000 -300 Level Chicago Center
05:55AM 42.2219 -87.6608 219° Southwest 326 375 10,500 -1,080 Descending Chicago Center
05:56AM 42.1592 -87.7131 212° Southwest 272 313 8,900 -1,740 Descending Chicago Center
05:57AM 42.1069 -87.7953 229° Southwest 256 295 7,100 -960 Descending Chicago Center
05:58AM 42.0756 -87.8808 244° Southwest 256 295 7,000 -60 Descending Chicago Center
05:59AM 42.0717 -87.9714 267° West 252 290 7,000 -60 Level Chicago Center
06:00AM 42.0725 -88.0619 271° West 248 285 6,900 -840 Descending Chicago Center
06:01AM 42.0719 -88.1417 269° West 228 262 5,400 -1,260 Descending Chicago Center
06:02AM 42.0728 -88.2133 271° West 209 241 4,400 -720 Descending Chicago Center
06:03AM 42.0733 -88.2739 271° West 187 215 4,000 -240 Descending Chicago Center
06:04AM 42.0244 -88.2747 181° South 183 211 4,000 -60 Level Chicago Center
06:05AM 41.9911 -88.2353 139° Southeast 194 223 3,900 -360 Descending Chicago Center
06:06AM 41.9725 -88.1744 112° Southeast 185 213 3,300 -480 Descending Chicago Center
06:07AM 41.9647 -88.1164 100° East 172 198 3,000 -360 Descending Chicago Center
06:08AM 41.9644 -88.0606 90° East 158 182 2,600 -600 Descending Chicago Center
06:09AM 41.9653 -88.0108 89° East 148 170 1,900 -660 Descending Chicago Center
06:10AM 41.9650 -87.9672 90° East 133 153 1,300 -600 Descending Chicago Center